Green Lawn, Missouri
Current Conditions -  °F | °C
As of 9:54 AM on Monday 24 Nov 2014 (Local Time) from KUIN Reporting Station
Overcast Overcast  
Wind Chill: 18°   Ceiling: 2500
Heat Index: 31°   Visibility: 10mi
Dew Point: 24°   Wind: 22mph
Humidity: 76%   Direction: 280°W
Pressure: 29.58"   Gusts: 30mph
Location:  39.4063°N, 91.6511°W
Report Text: KUIN 241554Z AUTO 28019G26KT 10SM OVC025 M01/M04 A2958 RMK AO2 PK WND 28032/1528 SLP017 T10061044
Loading
Personal Weather Stations






























Interactive Weather Map New forecast layout! Learn more

10-Day Weather Forecast

Advertisements
Track Severe Weather on mobile